Time;durP1;ratioP1;P1;durP2;ratioP2;P2;SDS_P1;SDS_P2;PMS_P1;PMS_P2;Temp;Humidity;BMP_temperature;BMP_pressure;BME280_temperature;BME280_humidity;BME280_pressure;Samples;Min_cycle;Max_cycle;Signal;HPM_P1;HPM_P2
2022/09/01 00:00:59;;;;;;;3.90;2.05;;;;;;;28.03;53.44;98311.63;2098228;28;20063;-57
2022/09/01 00:02:07;;;;;;;2.45;1.52;;;;;;;28.03;53.29;98308.91;2101774;28;20410;-54
2022/09/01 00:03:09;;;;;;;2.42;1.65;;;;;;;28.02;53.50;98310.78;2099157;28;20402;-57
2022/09/01 00:04:14;;;;;;;2.78;2.15;;;;;;;28.06;53.33;98316.53;2098558;28;20048;-52
2022/09/01 00:05:17;;;;;;;5.45;2.05;;;;;;;28.04;53.46;98302.34;2094348;28;20047;-61
2022/09/01 00:06:21;;;;;;;2.58;1.58;;;;;;;28.03;53.62;98307.00;2096860;28;20131;-60
2022/09/01 00:07:22;;;;;;;2.00;1.80;;;;;;;28.04;53.56;98314.06;2096260;28;20048;-57
2022/09/01 00:08:24;;;;;;;3.50;1.70;;;;;;;28.04;53.57;98310.53;2098613;28;20127;-55
2022/09/01 00:09:25;;;;;;;2.40;1.55;;;;;;;28.04;53.43;98308.63;2095302;28;20047;-58
2022/09/01 00:10:27;;;;;;;2.08;1.67;;;;;;;28.03;53.48;98309.72;2094695;27;20058;-58
2022/09/01 00:11:29;;;;;;;3.83;1.60;;;;;;;28.04;53.41;98308.63;2097652;28;20051;-55
2022/09/01 00:12:31;;;;;;;2.13;1.38;;;;;;;28.06;53.48;98311.09;2094746;28;20063;-58
2022/09/01 00:13:32;;;;;;;2.72;2.38;;;;;;;28.05;53.42;98312.16;2089709;28;20908;-54
2022/09/01 00:14:37;;;;;;;2.17;1.63;;;;;;;28.03;53.30;98312.44;2098182;28;20093;-54
2022/09/01 00:15:38;;;;;;;3.47;1.98;;;;;;;28.05;53.51;98310.28;2094415;28;20047;-51
2022/09/01 00:16:40;;;;;;;4.32;1.83;;;;;;;28.05;53.67;98306.72;2095931;28;20071;-57
2022/09/01 00:17:41;;;;;;;4.28;2.05;;;;;;;28.04;53.55;98303.16;2092821;28;20679;-58
2022/09/01 00:18:44;;;;;;;2.03;1.35;;;;;;;28.04;53.73;98303.16;2093175;28;20056;-53
2022/09/01 00:19:45;;;;;;;3.05;1.88;;;;;;;28.01;53.59;98301.00;2093284;28;20150;-59
2022/09/01 00:20:48;;;;;;;4.60;1.92;;;;;;;28.00;53.66;98293.91;2096330;28;20533;-56
2022/09/01 00:21:50;;;;;;;4.32;1.73;;;;;;;27.99;53.44;98300.44;2094175;28;20998;-56
2022/09/01 00:22:52;;;;;;;5.43;1.63;;;;;;;28.01;53.73;98302.91;2097101;28;20047;-58
2022/09/01 00:23:52;;;;;;;2.80;1.35;;;;;;;28.01;53.59;98300.19;2098105;28;20052;-49
2022/09/01 00:24:55;;;;;;;3.63;1.98;;;;;;;28.00;53.78;98302.09;2093379;28;20064;-55
2022/09/01 00:25:56;;;;;;;2.45;1.80;;;;;;;28.01;53.58;98297.47;2097253;28;20082;-53
2022/09/01 00:26:58;;;;;;;3.22;1.50;;;;;;;28.02;53.46;98301.81;2097902;28;20563;-58
2022/09/01 00:28:03;;;;;;;3.42;1.70;;;;;;;28.01;53.51;98302.91;2093432;28;20047;-52
2022/09/01 00:29:06;;;;;;;3.45;1.70;;;;;;;28.00;53.89;98301.25;2094797;28;20456;-52
2022/09/01 00:30:08;;;;;;;2.20;1.88;;;;;;;28.00;53.85;98298.53;2092581;28;20803;-57
2022/09/01 00:31:10;;;;;;;3.47;1.83;;;;;;;27.99;53.49;98299.63;2093095;28;20135;-56
2022/09/01 00:32:12;;;;;;;2.15;1.45;;;;;;;27.99;53.60;98294.19;2095531;28;20140;-55
2022/09/01 00:33:13;;;;;;;3.53;1.67;;;;;;;27.99;53.64;98295.00;2099876;28;20226;-52
2022/09/01 00:34:16;;;;;;;2.42;1.55;;;;;;;27.99;53.66;98297.72;2097505;28;20058;-54
2022/09/01 00:35:18;;;;;;;2.88;1.65;;;;;;;27.99;53.53;98296.91;2099747;28;20036;-54
2022/09/01 00:36:22;;;;;;;3.58;2.15;;;;;;;28.00;53.56;98298.53;2098365;28;20036;-54
2022/09/01 00:37:23;;;;;;;3.70;2.13;;;;;;;27.98;53.78;98298.81;2097848;28;20060;-55
2022/09/01 00:38:24;;;;;;;4.70;1.95;;;;;;;27.99;53.74;98300.44;2094175;28;20054;-58
2022/09/01 00:39:25;;;;;;;2.15;1.50;;;;;;;27.97;53.62;98301.81;2095707;28;20636;-50
2022/09/01 00:40:27;;;;;;;5.60;2.35;;;;;;;27.98;53.43;98300.72;2097761;28;20047;-57
2022/09/01 00:41:30;;;;;;;2.20;1.77;;;;;;;28.00;53.51;98301.25;2096719;28;21342;-57
2022/09/01 00:42:32;;;;;;;3.47;2.20;;;;;;;27.97;53.49;98299.91;2099328;28;20052;-56
2022/09/01 00:43:39;;;;;;;4.95;2.20;;;;;;;27.98;53.55;98303.47;2099597;28;20051;-57
2022/09/01 00:44:41;;;;;;;3.88;2.05;;;;;;;27.96;53.49;98306.44;2098406;28;20068;-59
2022/09/01 00:45:42;;;;;;;2.33;1.92;;;;;;;27.98;53.49;98307.00;2085366;28;20052;-59
2022/09/01 00:46:45;;;;;;;2.05;1.80;;;;;;;27.99;53.46;98305.91;2092366;28;20048;-57
2022/09/01 00:47:47;;;;;;;8.57;1.88;;;;;;;27.96;53.55;98300.19;2097602;28;20055;-60
2022/09/01 00:48:54;;;;;;;1.77;1.40;;;;;;;27.97;53.53;98296.34;2096286;28;20093;-60
2022/09/01 00:49:55;;;;;;;2.20;1.67;;;;;;;27.93;53.47;98298.00;2094904;28;20048;-50
2022/09/01 00:50:56;;;;;;;2.35;2.03;;;;;;;27.93;53.37;98293.38;2092707;28;20071;-57
2022/09/01 00:52:03;;;;;;;3.55;1.77;;;;;;;27.94;53.53;98296.91;2093039;28;20043;-56
2022/09/01 00:53:07;;;;;;;3.33;1.90;;;;;;;27.93;53.70;98298.00;2092845;28;20078;-50
2022/09/01 00:54:12;;;;;;;6.25;1.63;;;;;;;27.93;53.67;98295.28;2094487;28;20144;-53
2022/09/01 00:55:18;;;;;;;1.80;1.60;;;;;;;27.93;53.58;98300.72;2090454;28;20723;-59
2022/09/01 00:56:19;;;;;;;1.98;1.30;;;;;;;27.91;53.40;98297.44;2087792;28;20040;-54
2022/09/01 00:57:21;;;;;;;4.68;2.35;;;;;;;27.90;53.61;98293.91;2090926;28;20152;-57
2022/09/01 00:58:22;;;;;;;4.57;2.28;;;;;;;27.88;53.80;98292.53;2083818;28;20059;-54
2022/09/01 00:59:25;;;;;;;5.35;1.73;;;;;;;27.89;53.71;98296.91;2092192;28;20139;-58
2022/09/01 01:00:30;;;;;;;5.75;2.10;;;;;;;27.90;53.54;98296.63;2097017;28;21941;-52
2022/09/01 01:01:33;;;;;;;4.43;1.95;;;;;;;27.88;53.93;98296.09;2096328;28;20048;-60
2022/09/01 01:02:35;;;;;;;2.45;1.88;;;;;;;27.90;53.88;98301.28;2096628;28;20547;-60
2022/09/01 01:03:38;;;;;;;3.42;1.75;;;;;;;27.91;53.74;98305.63;2098779;28;20052;-59
2022/09/01 01:04:42;;;;;;;2.75;1.92;;;;;;;27.91;53.85;98303.72;2096227;28;20502;-54
2022/09/01 01:05:52;;;;;;;3.03;1.55;;;;;;;27.92;53.65;98305.38;2096254;28;20163;-54
2022/09/01 01:07:00;;;;;;;3.88;1.83;;;;;;;27.89;53.88;98305.06;2094998;28;20051;-53
2022/09/01 01:08:04;;;;;;;4.07;1.85;;;;;;;27.90;53.54;98301.28;2096030;28;20043;-55
2022/09/01 01:09:05;;;;;;;2.35;1.70;;;;;;;27.90;53.70;98302.09;2094730;28;21773;-57
2022/09/01 01:10:10;;;;;;;2.08;1.83;;;;;;;27.90;53.77;98304.81;2099152;28;20048;-52
2022/09/01 01:11:16;;;;;;;2.90;2.00;;;;;;;27.91;53.70;98308.34;2095523;28;20657;-61
2022/09/01 01:12:18;;;;;;;3.00;1.60;;;;;;;27.92;53.62;98310.00;2099218;28;20775;-52
2022/09/01 01:13:19;;;;;;;1.88;1.60;;;;;;;27.92;53.81;98310.81;2096926;28;21036;-51
2022/09/01 01:14:22;;;;;;;4.82;1.88;;;;;;;27.93;53.68;98311.63;2098397;28;20044;-57
2022/09/01 01:15:23;;;;;;;5.90;1.80;;;;;;;27.92;53.76;98310.00;2099577;28;20059;-58
2022/09/01 01:16:27;;;;;;;3.22;1.75;;;;;;;27.92;53.80;98305.38;2093678;28;20406;-50
2022/09/01 01:17:28;;;;;;;2.60;1.73;;;;;;;27.92;53.87;98310.00;2095759;28;20486;-57
2022/09/01 01:18:30;;;;;;;4.65;2.25;;;;;;;27.92;53.95;98308.09;2094219;28;20155;-60
2022/09/01 01:24:02;;;;;;;2.72;1.60;;;;;;;27.87;54.03;98320.91;2095062;28;20713;-55
2022/09/01 01:25:05;;;;;;;2.08;1.50;;;;;;;27.88;53.83;98320.63;2096614;28;20052;-56
2022/09/01 01:26:09;;;;;;;2.92;1.92;;;;;;;27.89;53.76;98325.00;2096145;28;20421;-54
2022/09/01 01:27:10;;;;;;;2.38;1.70;;;;;;;27.91;53.67;98330.16;2097045;27;20044;-56
2022/09/01 01:28:14;;;;;;;3.70;2.10;;;;;;;27.92;53.60;98331.81;2096464;27;20039;-57
2022/09/01 01:29:17;;;;;;;3.13;1.80;;;;;;;27.90;53.65;98326.63;2097757;28;20722;-55
2022/09/01 01:30:22;;;;;;;9.85;1.80;;;;;;;27.90;53.81;98328.53;2095832;28;20040;-55
2022/09/01 01:31:23;;;;;;;2.80;1.80;;;;;;;27.91;53.54;98333.69;2094774;28;20134;-59
2022/09/01 01:32:25;;;;;;;4.32;2.42;;;;;;;27.90;53.77;98333.97;2099959;28;20043;-58
2022/09/01 01:33:31;;;;;;;2.30;1.90;;;;;;;27.91;53.65;98327.44;2103107;28;20618;-58
2022/09/01 01:34:33;;;;;;;4.68;1.90;;;;;;;27.90;53.50;98331.25;2093988;28;20410;-56
2022/09/01 01:35:34;;;;;;;1.85;1.55;;;;;;;27.90;53.75;98323.06;2097634;28;20052;-60
2022/09/01 01:36:38;;;;;;;3.90;1.80;;;;;;;27.89;53.57;98313.25;2102625;28;20059;-59
2022/09/01 01:37:47;;;;;;;4.50;1.80;;;;;;;27.89;53.75;98325.00;2100096;28;20052;-55
2022/09/01 01:38:50;;;;;;;1.95;1.75;;;;;;;27.88;53.49;98314.34;2098950;28;20070;-59
2022/09/01 01:39:51;;;;;;;3.53;2.00;;;;;;;27.87;53.69;98326.34;2094451;28;20579;-60
2022/09/01 01:40:55;;;;;;;4.70;1.70;;;;;;;27.88;53.54;98322.53;2095344;28;20406;-56
2022/09/01 01:41:57;;;;;;;5.43;1.95;;;;;;;27.88;53.69;98322.53;2099700;28;20051;-50
2022/09/01 01:43:00;;;;;;;3.25;2.20;;;;;;;27.89;53.76;98327.72;2098050;28;20131;-55
2022/09/01 01:44:03;;;;;;;4.25;2.50;;;;;;;27.88;53.56;98320.63;2096236;28;20043;-56
2022/09/01 01:45:06;;;;;;;2.97;1.77;;;;;;;27.88;53.85;98330.69;2092977;28;20044;-57
2022/09/01 01:46:10;;;;;;;2.80;1.75;;;;;;;27.91;53.58;98324.69;2096193;28;20079;-52
2022/09/01 01:47:13;;;;;;;1.95;1.75;;;;;;;27.89;53.54;98326.88;2094154;27;20981;-53
2022/09/01 01:48:23;;;;;;;3.50;1.67;;;;;;;27.88;53.33;98319.81;2099998;28;20469;-56
2022/09/01 01:49:27;;;;;;;2.22;1.73;;;;;;;27.87;53.72;98326.34;2099240;28;20060;-51
2022/09/01 01:50:34;;;;;;;2.92;1.70;;;;;;;27.87;53.66;98312.72;2098095;28;20437;-56
2022/09/01 01:51:36;;;;;;;4.43;2.45;;;;;;;27.84;53.37;98319.53;2098908;28;20063;-59
2022/09/01 01:52:37;;;;;;;3.60;1.95;;;;;;;27.84;53.45;98309.44;2101570;28;20082;-56
2022/09/01 01:53:39;;;;;;;2.33;1.60;;;;;;;27.84;53.57;98303.19;2100617;28;20047;-58
2022/09/01 01:54:41;;;;;;;3.47;1.48;;;;;;;27.84;53.57;98304.00;2095938;28;20071;-56
2022/09/01 01:55:43;;;;;;;6.22;1.85;;;;;;;27.83;53.26;98299.66;2097383;28;20050;-51
2022/09/01 01:56:45;;;;;;;1.65;1.55;;;;;;;27.82;53.58;98291.72;2099433;28;20797;-55
2022/09/01 01:57:50;;;;;;;3.58;1.77;;;;;;;27.81;53.59;98293.66;2098836;28;20154;-54
2022/09/01 01:58:53;;;;;;;5.07;1.73;;;;;;;27.82;53.46;98291.72;2101844;28;20123;-51
2022/09/01 01:59:55;;;;;;;4.57;1.92;;;;;;;27.83;53.53;98296.09;2103065;28;20056;-60
2022/09/01 02:00:57;;;;;;;2.38;1.73;;;;;;;27.84;53.54;98295.81;2102123;28;20048;-52
2022/09/01 02:02:02;;;;;;;4.60;1.88;;;;;;;27.83;53.51;98296.09;2101646;28;20078;-58
2022/09/01 02:03:06;;;;;;;3.42;2.00;;;;;;;27.83;53.61;98296.09;2098332;28;20917;-52
2022/09/01 02:04:08;;;;;;;3.55;1.77;;;;;;;27.81;53.37;98293.66;2100465;28;20171;-53
2022/09/01 02:05:11;;;;;;;5.18;3.20;;;;;;;27.81;53.32;98285.47;2097133;28;20051;-56
2022/09/01 02:06:13;;;;;;;1.58;1.48;;;;;;;27.81;53.57;98296.38;2095752;28;20047;-61
2022/09/01 02:07:14;;;;;;;4.32;1.95;;;;;;;27.82;53.46;98284.38;2099720;28;20044;-60
2022/09/01 02:08:21;;;;;;;1.88;1.77;;;;;;;27.82;53.25;98289.81;2099407;28;20122;-57
2022/09/01 02:09:22;;;;;;;2.05;1.75;;;;;;;27.81;53.50;98280.03;2094959;28;20051;-56
2022/09/01 02:10:26;;;;;;;3.10;1.90;;;;;;;27.82;53.82;98284.38;2093815;27;20074;-58
2022/09/01 02:11:27;;;;;;;2.70;1.77;;;;;;;27.82;53.18;98283.56;2092230;27;20055;-54
2022/09/01 02:12:31;;;;;;;2.30;1.83;;;;;;;27.83;53.45;98280.56;2095854;28;20135;-55
2022/09/01 02:13:32;;;;;;;3.33;1.48;;;;;;;27.85;53.66;98281.09;2098139;28;20048;-55
2022/09/01 02:14:34;;;;;;;3.50;1.55;;;;;;;27.83;53.29;98286.03;2097234;27;20056;-57
2022/09/01 02:15:42;;;;;;;2.35;1.55;;;;;;;27.83;53.12;98279.72;2098134;28;20039;-58
2022/09/01 02:16:44;;;;;;;2.83;1.77;;;;;;;27.81;53.14;98277.28;2098910;28;20059;-54
2022/09/01 02:17:46;;;;;;;3.83;2.65;;;;;;;27.82;53.31;98281.63;2091788;27;20044;-59
2022/09/01 02:18:48;;;;;;;4.32;1.63;;;;;;;27.82;53.17;98286.28;2095072;27;20040;-53
2022/09/01 02:19:49;;;;;;;2.58;1.92;;;;;;;27.81;53.06;98282.75;2095484;28;20044;-58
2022/09/01 02:20:53;;;;;;;2.50;1.45;;;;;;;27.82;53.30;98278.91;2092524;27;20044;-60
2022/09/01 02:21:54;;;;;;;1.35;1.25;;;;;;;27.81;53.28;98277.28;2097253;28;20044;-60
2022/09/01 02:22:57;;;;;;;2.40;1.88;;;;;;;27.83;53.17;98277.00;2094286;28;20387;-60
2022/09/01 02:24:01;;;;;;;3.35;1.77;;;;;;;27.81;53.12;98274.56;2094603;28;20044;-55
2022/09/01 02:25:02;;;;;;;6.28;1.80;;;;;;;27.81;53.26;98273.75;2097472;28;20128;-57
2022/09/01 02:26:05;;;;;;;2.35;1.67;;;;;;;27.81;53.28;98277.28;2094397;28;20063;-54
2022/09/01 02:27:06;;;;;;;5.43;1.80;;;;;;;27.82;53.03;98272.66;2096030;28;20127;-58
2022/09/01 02:28:14;;;;;;;2.38;1.80;;;;;;;27.84;53.20;98271.28;2094717;28;20142;-57
2022/09/01 02:29:17;;;;;;;4.50;1.45;;;;;;;27.83;53.39;98275.13;2100069;28;20047;-57
2022/09/01 02:30:19;;;;;;;5.13;1.73;;;;;;;27.83;53.14;98272.41;2091624;28;20058;-54
2022/09/01 02:31:21;;;;;;;2.33;1.55;;;;;;;27.84;52.98;98265.03;2100503;28;20431;-59
2022/09/01 02:32:23;;;;;;;2.35;2.15;;;;;;;27.82;53.23;98268.00;2097527;28;20762;-59
2022/09/01 02:33:25;;;;;;;3.58;2.08;;;;;;;27.83;53.27;98266.94;2102470;28;20048;-57
2022/09/01 02:34:27;;;;;;;1.88;1.40;;;;;;;27.84;53.05;98260.38;2097469;28;20044;-55
2022/09/01 02:35:33;;;;;;;5.00;2.38;;;;;;;27.84;52.92;98260.38;2099398;28;20668;-49
2022/09/01 02:36:36;;;;;;;3.10;1.85;;;;;;;27.84;53.08;98260.38;2096509;28;20127;-58
2022/09/01 02:37:38;;;;;;;3.15;1.80;;;;;;;27.84;53.20;98262.31;2099700;28;20047;-54
2022/09/01 02:38:41;;;;;;;3.42;2.03;;;;;;;27.82;53.22;98256.31;2098417;28;20059;-60
2022/09/01 02:39:43;;;;;;;1.40;1.30;;;;;;;27.81;53.25;98260.13;2095491;27;20048;-56
2022/09/01 02:40:45;;;;;;;2.88;1.52;;;;;;;27.80;53.20;98259.31;2095676;28;20051;-59
2022/09/01 02:41:48;;;;;;;4.68;1.58;;;;;;;27.78;53.23;98261.47;2100170;28;20052;-55
2022/09/01 02:42:51;;;;;;;2.63;1.83;;;;;;;27.80;53.37;98255.75;2094877;27;20044;-59
2022/09/01 02:43:55;;;;;;;4.60;1.95;;;;;;;27.80;53.09;98253.03;2097439;28;22526;-56
2022/09/01 02:44:57;;;;;;;3.50;1.83;;;;;;;27.79;53.11;98257.66;2094811;28;20040;-56
2022/09/01 02:46:01;;;;;;;4.07;1.52;;;;;;;27.81;53.36;98254.69;2094609;28;20144;-55
2022/09/01 02:47:04;;;;;;;2.22;1.52;;;;;;;27.80;53.27;98261.19;2096753;28;20146;-60
2022/09/01 02:48:09;;;;;;;2.88;1.67;;;;;;;27.81;53.31;98252.75;2098197;28;20619;-56
2022/09/01 02:49:14;;;;;;;5.57;1.40;;;;;;;27.78;53.13;98256.00;2097899;27;20050;-58
2022/09/01 02:50:17;;;;;;;3.13;1.45;;;;;;;27.80;53.17;98253.88;2096704;27;20048;-52
2022/09/01 02:51:21;;;;;;;3.03;1.45;;;;;;;27.81;53.07;98244.59;2097621;28;20056;-56
2022/09/01 02:52:23;;;;;;;5.20;1.85;;;;;;;27.81;53.22;98243.78;2097451;28;20495;-58
2022/09/01 02:53:24;;;;;;;2.63;1.48;;;;;;;27.81;53.33;98244.59;2095000;28;20044;-55
2022/09/01 02:54:27;;;;;;;3.22;1.55;;;;;;;27.84;53.29;98248.69;2098229;28;20052;-55
2022/09/01 02:55:28;;;;;;;1.55;1.42;;;;;;;27.84;53.14;98243.22;2099062;28;20051;-58
2022/09/01 02:56:30;;;;;;;3.88;2.10;;;;;;;27.84;53.11;98248.69;2097354;28;20123;-54
2022/09/01 02:57:33;;;;;;;2.20;2.00;;;;;;;27.83;53.35;98247.88;2094603;27;20052;-51
2022/09/01 02:58:39;;;;;;;3.80;2.10;;;;;;;27.82;53.34;98251.66;2086116;28;20051;-60
2022/09/01 02:59:41;;;;;;;1.85;1.58;;;;;;;27.84;53.38;98248.69;2098170;27;20632;-58
2022/09/01 03:00:43;;;;;;;3.10;1.50;;;;;;;27.82;53.06;98246.22;2095414;28;20050;-58
2022/09/01 03:01:46;;;;;;;2.00;1.45;;;;;;;27.83;53.33;98247.88;2100208;28;20044;-58
2022/09/01 03:02:51;;;;;;;2.58;1.85;;;;;;;27.81;53.27;98250.03;2099160;28;20654;-53
2022/09/01 03:03:54;;;;;;;1.40;1.30;;;;;;;27.83;53.14;98247.03;2098760;27;20050;-56
2022/09/01 03:04:56;;;;;;;2.53;1.73;;;;;;;27.83;53.16;98247.03;2096445;28;20748;-56
2022/09/01 03:05:57;;;;;;;3.20;1.67;;;;;;;27.82;53.02;98248.13;2093912;28;20055;-56
2022/09/01 03:06:59;;;;;;;2.72;1.70;;;;;;;27.82;52.83;98240.75;2095919;27;20043;-56
2022/09/01 03:08:03;;;;;;;1.77;1.50;;;;;;;27.82;53.39;98234.50;2096297;28;20044;-59
2022/09/01 03:09:07;;;;;;;2.92;2.10;;;;;;;27.82;53.05;98240.75;2093632;28;20130;-52
2022/09/01 03:10:08;;;;;;;2.97;2.17;;;;;;;27.81;53.32;98250.03;2093677;28;20081;-54
2022/09/01 03:11:10;;;;;;;5.93;1.70;;;;;;;27.82;53.23;98239.94;2097782;28;20065;-54
2022/09/01 03:12:11;;;;;;;2.50;1.35;;;;;;;27.82;53.09;98246.22;2097102;28;20054;-57
2022/09/01 03:13:15;;;;;;;3.97;1.98;;;;;;;27.83;53.23;98245.13;2095757;28;20054;-54
2022/09/01 03:14:17;;;;;;;4.07;2.03;;;;;;;27.83;53.30;98247.03;2091374;27;20043;-52
2022/09/01 03:15:21;;;;;;;2.42;1.40;;;;;;;27.83;53.34;98247.88;2094803;28;20056;-57
2022/09/01 03:16:22;;;;;;;2.13;1.48;;;;;;;27.82;53.02;98246.22;2095842;28;20063;-57
2022/09/01 03:17:24;;;;;;;3.60;2.20;;;;;;;27.81;53.06;98239.13;2099391;28;20078;-56
2022/09/01 03:18:25;;;;;;;3.92;1.65;;;;;;;27.82;52.97;98246.22;2097031;28;20060;-59
2022/09/01 03:19:42;;;;;;;3.38;1.60;;;;;;;27.81;53.10;98247.31;2098525;28;20824;-59
2022/09/01 03:20:45;;;;;;;2.65;2.05;;;;;;;27.79;53.24;98244.03;2092662;28;20044;-57
2022/09/01 03:21:47;;;;;;;6.13;2.25;;;;;;;27.81;53.08;98243.78;2094646;28;20040;-58
2022/09/01 03:22:50;;;;;;;2.17;1.40;;;;;;;27.81;53.07;98244.59;2098015;27;20039;-57
2022/09/01 03:23:52;;;;;;;2.78;1.85;;;;;;;27.80;53.15;98237.50;2096384;27;20127;-52
2022/09/01 03:24:54;;;;;;;3.25;1.73;;;;;;;27.81;53.11;98238.31;2095745;28;20137;-61
2022/09/01 03:25:56;;;;;;;2.75;1.40;;;;;;;27.80;53.03;98237.50;2095209;28;20109;-55
2022/09/01 03:26:57;;;;;;;2.67;1.50;;;;;;;27.82;53.07;98237.22;2096916;28;20056;-53
2022/09/01 03:28:00;;;;;;;2.10;1.83;;;;;;;27.83;53.15;98236.97;2097163;28;21535;-54
2022/09/01 03:29:02;;;;;;;2.08;1.70;;;;;;;27.82;53.19;98232.59;2096139;28;20047;-54
2022/09/01 03:30:05;;;;;;;2.28;1.48;;;;;;;27.81;53.00;98232.88;2096238;28;20044;-55
2022/09/01 03:31:07;;;;;;;3.33;1.50;;;;;;;27.80;53.30;98232.06;2096186;28;20040;-57
2022/09/01 03:32:09;;;;;;;1.75;1.45;;;;;;;27.80;53.17;98234.78;2101770;28;20078;-59
2022/09/01 03:33:10;;;;;;;2.67;1.55;;;;;;;27.81;53.13;98230.16;2098913;28;21105;-53
2022/09/01 03:34:12;;;;;;;4.32;1.80;;;;;;;27.80;53.11;98237.50;2101937;28;20144;-57
2022/09/01 03:35:13;;;;;;;3.70;1.73;;;;;;;27.79;52.89;98233.13;2100741;28;20044;-58
2022/09/01 03:36:18;;;;;;;1.45;1.35;;;;;;;27.79;53.23;98237.75;2092471;28;20430;-56
2022/09/01 03:37:21;;;;;;;3.00;1.83;;;;;;;27.79;53.34;98235.03;2098063;28;20131;-53
2022/09/01 03:38:23;;;;;;;4.55;1.42;;;;;;;27.78;53.28;98233.41;2092634;28;20055;-59
2022/09/01 03:39:24;;;;;;;2.20;1.85;;;;;;;27.78;53.37;98239.66;2100066;28;20134;-55
2022/09/01 03:40:31;;;;;;;3.25;1.77;;;;;;;27.77;53.27;98235.28;2092704;28;20529;-54
2022/09/01 03:41:36;;;;;;;2.35;1.33;;;;;;;27.77;52.88;98234.47;2096895;28;20075;-51
2022/09/01 03:42:38;;;;;;;1.88;1.42;;;;;;;27.76;53.31;98236.38;2096684;28;20063;-56
2022/09/01 03:43:40;;;;;;;1.88;1.20;;;;;;;27.77;52.84;98238.00;2095054;28;20490;-52
2022/09/01 03:44:43;;;;;;;2.75;1.80;;;;;;;27.78;53.17;98238.84;2084931;28;20066;-54
2022/09/01 03:45:45;;;;;;;2.38;1.60;;;;;;;27.77;53.17;98239.91;2091409;28;20816;-58
2022/09/01 03:46:47;;;;;;;2.00;1.70;;;;;;;27.77;52.86;98237.19;2093804;28;20055;-58
2022/09/01 03:47:49;;;;;;;5.35;1.58;;;;;;;27.75;53.11;98242.09;2098681;28;20043;-58
2022/09/01 03:48:53;;;;;;;2.50;1.80;;;;;;;27.78;53.08;98238.84;2095253;28;20051;-60
2022/09/01 03:49:55;;;;;;;2.22;1.70;;;;;;;27.74;53.06;98238.56;2094372;28;20044;-51
2022/09/01 03:51:01;;;;;;;4.18;1.95;;;;;;;27.74;53.19;98240.47;2091521;28;20534;-57
2022/09/01 03:52:04;;;;;;;3.47;1.52;;;;;;;27.71;53.19;98239.09;2098488;28;20086;-57
2022/09/01 03:53:04;;;;;;;2.05;1.67;;;;;;;27.71;52.88;98244.56;2094059;28;20051;-57
2022/09/01 03:54:07;;;;;;;2.88;1.90;;;;;;;27.72;52.98;98238.03;2099293;28;20062;-54
2022/09/01 03:55:08;;;;;;;1.95;1.35;;;;;;;27.71;53.02;98239.09;2093496;28;20051;-51
2022/09/01 03:56:12;;;;;;;6.97;1.85;;;;;;;27.70;53.00;98237.47;2095602;28;20056;-60
2022/09/01 03:57:33;;;;;;;7.70;2.30;;;;;;;27.69;52.91;98240.47;2100023;28;20127;-51
2022/09/01 03:58:34;;;;;;;2.65;1.85;;;;;;;27.68;52.95;98249.75;2088879;28;20058;-60
2022/09/01 03:59:42;;;;;;;2.40;1.35;;;;;;;27.71;53.17;98241.81;2100347;28;20098;-58
2022/09/01 04:00:47;;;;;;;3.97;2.03;;;;;;;27.71;52.97;98243.75;2099431;28;20109;-58
2022/09/01 04:01:49;;;;;;;2.03;1.83;;;;;;;27.71;52.82;98246.47;2093934;28;20048;-52
2022/09/01 04:02:54;;;;;;;4.93;1.67;;;;;;;27.71;53.02;98241.81;2098800;28;20048;-60
2022/09/01 04:03:55;;;;;;;2.85;2.42;;;;;;;27.70;53.15;98244.84;2099376;28;20052;-58
2022/09/01 04:04:57;;;;;;;2.13;1.83;;;;;;;27.69;53.26;98246.72;2095476;28;20052;-57
2022/09/01 04:06:00;;;;;;;3.33;1.95;;;;;;;27.70;53.39;98245.66;2099247;28;20047;-57
2022/09/01 04:07:01;;;;;;;4.40;1.52;;;;;;;27.68;52.90;98239.66;2098902;28;20127;-57
2022/09/01 04:08:05;;;;;;;3.38;1.73;;;;;;;27.68;53.05;98244.28;2095185;28;20051;-56
2022/09/01 04:09:07;;;;;;;2.03;1.80;;;;;;;27.68;53.16;98245.09;2094993;28;20158;-51
2022/09/01 04:10:10;;;;;;;3.33;1.77;;;;;;;27.70;52.95;98242.13;2096876;28;20064;-59
2022/09/01 04:11:17;;;;;;;3.38;1.85;;;;;;;27.71;53.03;98241.81;2095769;28;20568;-57
2022/09/01 04:12:18;;;;;;;6.22;1.83;;;;;;;27.67;53.12;98242.66;2094649;28;20655;-53
2022/09/01 04:13:24;;;;;;;2.08;1.77;;;;;;;27.67;53.07;98237.22;2098319;28;20056;-61
2022/09/01 04:14:26;;;;;;;2.70;2.10;;;;;;;27.65;52.99;98242.94;2094119;28;20514;-51
2022/09/01 04:15:31;;;;;;;3.42;1.85;;;;;;;27.66;53.21;98239.09;2094991;28;20079;-60
2022/09/01 04:18:08;;;;;;;;;;;;;;;27.50;53.26;98240.22;2096195;28;20055;-56
2022/09/01 04:19:18;;;;;;;2.10;1.58;;;;;;;27.55;53.28;98243.75;2091107;28;19967;-53
2022/09/01 04:20:20;;;;;;;1.60;1.50;;;;;;;27.58;53.32;98234.19;2091556;28;20173;-51
2022/09/01 04:21:21;;;;;;;3.45;2.17;;;;;;;27.59;53.50;98233.13;2092436;28;20040;-60
2022/09/01 04:22:28;;;;;;;2.42;1.98;;;;;;;27.64;53.00;98238.56;2094203;28;20486;-55
2022/09/01 04:23:32;;;;;;;2.88;1.73;;;;;;;27.66;53.22;98241.00;2098433;28;20509;-58
2022/09/01 04:24:34;;;;;;;9.38;1.95;;;;;;;27.62;53.00;98240.75;2092552;27;20048;-55
2022/09/01 04:25:37;;;;;;;1.63;1.38;;;;;;;27.61;53.10;98234.50;2095377;28;20058;-60
2022/09/01 04:26:40;;;;;;;2.83;1.88;;;;;;;27.61;53.36;98239.94;2099233;28;21026;-54
2022/09/01 04:27:41;;;;;;;5.45;2.22;;;;;;;27.65;53.38;98242.13;2100314;28;20124;-57
2022/09/01 04:28:47;;;;;;;5.25;2.03;;;;;;;27.67;53.16;98243.47;2092492;28;20044;-54
2022/09/01 04:29:48;;;;;;;2.47;1.50;;;;;;;27.65;53.17;98240.19;2095629;27;20078;-54
2022/09/01 04:30:56;;;;;;;3.05;1.60;;;;;;;27.64;53.35;98235.84;2095321;28;20394;-53
2022/09/01 04:32:01;;;;;;;2.47;1.75;;;;;;;27.64;52.89;98244.03;2094998;28;20076;-53
2022/09/01 04:33:04;;;;;;;3.72;1.63;;;;;;;27.62;53.14;98240.75;2097456;28;20047;-53
2022/09/01 04:34:09;;;;;;;2.10;1.90;;;;;;;27.65;53.20;98245.66;2102107;28;20044;-60
2022/09/01 04:35:15;;;;;;;8.13;2.78;;;;;;;27.63;53.17;98236.94;2101334;28;20047;-54
2022/09/01 04:36:19;;;;;;;2.80;1.65;;;;;;;27.65;53.30;98236.66;2102139;28;20137;-54
2022/09/01 04:37:22;;;;;;;4.00;1.83;;;;;;;27.65;53.14;98239.38;2100041;28;20055;-52
2022/09/01 04:38:23;;;;;;;4.85;1.92;;;;;;;27.60;53.22;98242.91;2096857;28;20060;-61
2022/09/01 04:39:27;;;;;;;2.25;1.67;;;;;;;27.59;53.23;98233.13;2101330;28;20164;-54
2022/09/01 04:40:28;;;;;;;3.30;2.20;;;;;;;27.60;53.16;98237.47;2103217;28;20051;-53
2022/09/01 04:41:32;;;;;;;3.75;1.92;;;;;;;27.60;53.15;98243.72;2100795;28;20118;-57
2022/09/01 04:42:33;;;;;;;3.70;1.77;;;;;;;27.58;53.21;98236.91;2094971;28;20506;-57
2022/09/01 04:43:35;;;;;;;7.22;1.73;;;;;;;27.58;53.14;98234.19;2095294;28;20167;-59
2022/09/01 04:44:38;;;;;;;4.78;1.42;;;;;;;27.59;53.39;98236.66;2095726;28;20146;-58
2022/09/01 04:45:41;;;;;;;4.53;2.38;;;;;;;27.58;53.41;98239.63;2092332;28;20052;-60
2022/09/01 04:46:45;;;;;;;4.07;1.83;;;;;;;27.58;53.34;98237.75;2096991;28;20048;-59
2022/09/01 04:47:47;;;;;;;3.28;1.70;;;;;;;27.57;53.11;98238.84;2095174;28;20541;-61
2022/09/01 04:48:51;;;;;;;6.07;1.80;;;;;;;27.57;53.34;98235.28;2099284;28;20040;-58
2022/09/01 04:49:56;;;;;;;4.55;1.50;;;;;;;27.56;53.26;98234.47;2094827;28;20040;-55
2022/09/01 04:50:57;;;;;;;3.00;1.60;;;;;;;27.54;53.31;98236.66;2095990;28;20043;-56
2022/09/01 04:51:59;;;;;;;4.93;1.92;;;;;;;27.56;53.54;98237.22;2094484;28;22388;-54
2022/09/01 04:53:01;;;;;;;4.75;2.10;;;;;;;27.56;53.26;98234.47;2093162;28;20452;-57
2022/09/01 04:54:03;;;;;;;4.15;1.92;;;;;;;27.55;53.40;98235.59;2094892;28;20048;-60
2022/09/01 04:55:04;;;;;;;5.50;2.35;;;;;;;27.56;53.35;98230.94;2096099;28;20544;-56
2022/09/01 04:56:08;;;;;;;2.70;1.83;;;;;;;27.56;53.40;98234.47;2096279;28;20044;-58
2022/09/01 04:57:09;;;;;;;3.65;1.70;;;;;;;27.56;53.18;98230.94;2097726;28;20143;-54
2022/09/01 04:58:16;;;;;;;2.95;1.77;;;;;;;27.55;53.42;98229.28;2094589;28;20048;-57
2022/09/01 04:59:19;;;;;;;2.28;1.63;;;;;;;27.55;53.63;98230.13;2096688;27;20606;-58
2022/09/01 05:00:25;;;;;;;3.47;1.60;;;;;;;27.55;53.00;98232.03;2098406;27;20043;-58
2022/09/01 05:01:26;;;;;;;4.10;1.98;;;;;;;27.54;53.56;98235.84;2085395;28;20063;-55
2022/09/01 05:02:28;;;;;;;4.55;2.20;;;;;;;27.53;53.20;98232.31;2095982;28;20047;-60
2022/09/01 05:03:30;;;;;;;2.55;2.28;;;;;;;27.54;53.46;98227.66;2098597;28;20055;-58